createdAt,value
2022-09-06T00:02:07.377Z,4.03
2022-09-06T00:04:34.582Z,4.15
2022-09-06T00:07:01.840Z,4.68
2022-09-06T00:09:29.001Z,4.20
2022-09-06T00:11:56.201Z,4.25
2022-09-06T00:14:23.384Z,4.13
2022-09-06T00:16:50.637Z,4.13
2022-09-06T00:19:17.821Z,3.70
2022-09-06T00:21:44.996Z,3.97
2022-09-06T00:24:12.237Z,4.07
2022-09-06T00:26:39.410Z,4.38
2022-09-06T00:29:06.590Z,4.50
2022-09-06T00:31:35.528Z,4.57
2022-09-06T00:34:02.822Z,4.70
2022-09-06T00:36:30.933Z,4.10
2022-09-06T00:38:58.672Z,4.60
2022-09-06T00:41:25.869Z,4.82
2022-09-06T00:43:53.153Z,4.63
2022-09-06T00:46:21.972Z,3.95
2022-09-06T00:48:50.535Z,5.20
2022-09-06T00:51:18.988Z,4.65
2022-09-06T00:53:46.214Z,4.93
2022-09-06T00:56:13.461Z,4.47
2022-09-06T00:58:40.773Z,4.82
2022-09-06T01:01:08.109Z,4.70
2022-09-06T01:03:36.110Z,4.78
2022-09-06T01:06:09.390Z,4.95
2022-09-06T01:08:42.376Z,4.60
2022-09-06T01:11:27.679Z,5.25
2022-09-06T01:14:13.374Z,5.10
2022-09-06T01:16:52.518Z,5.13
2022-09-06T01:19:38.451Z,4.80
2022-09-06T01:24:48.127Z,4.82
2022-09-06T01:27:21.332Z,4.93
2022-09-06T01:29:53.581Z,5.43
2022-09-06T01:32:23.486Z,5.90
2022-09-06T01:34:56.431Z,5.07
2022-09-06T01:37:23.713Z,5.30
2022-09-06T01:39:50.991Z,5.45
2022-09-06T01:42:18.292Z,5.60
2022-09-06T01:44:47.810Z,5.38
2022-09-06T01:47:33.851Z,5.70
2022-09-06T01:50:04.011Z,5.90
2022-09-06T01:52:43.041Z,5.75
2022-09-06T01:55:23.797Z,6.00
2022-09-06T01:58:17.945Z,5.57
2022-09-06T02:00:52.870Z,5.63
2022-09-06T02:03:20.067Z,5.72
2022-09-06T02:05:49.446Z,5.60
2022-09-06T02:08:36.999Z,6.07
2022-09-06T02:11:05.497Z,6.18
2022-09-06T02:13:59.307Z,6.78
2022-09-06T02:16:27.742Z,7.03
2022-09-06T02:18:57.698Z,6.13
2022-09-06T02:21:29.994Z,6.80
2022-09-06T02:23:58.464Z,6.20
2022-09-06T02:26:27.391Z,6.32
2022-09-06T02:28:54.942Z,7.13
2022-09-06T02:31:24.577Z,6.60
2022-09-06T02:33:52.035Z,6.82
2022-09-06T02:36:19.493Z,7.35
2022-09-06T02:38:47.005Z,7.38
2022-09-06T02:41:15.544Z,7.32
2022-09-06T02:43:43.792Z,6.63
2022-09-06T02:46:11.195Z,7.53
2022-09-06T02:48:38.379Z,7.45
2022-09-06T02:51:06.235Z,6.93
2022-09-06T02:53:33.893Z,7.05
2022-09-06T02:56:01.165Z,7.25
2022-09-06T02:58:29.459Z,7.38
2022-09-06T03:00:56.737Z,7.38
2022-09-06T03:03:25.056Z,7.65
2022-09-06T03:05:53.020Z,7.30
2022-09-06T03:08:21.195Z,8.40
2022-09-06T03:10:51.427Z,8.15
2022-09-06T03:13:18.625Z,8.23
2022-09-06T03:15:46.019Z,7.95
2022-09-06T03:18:13.181Z,7.95
2022-09-06T03:20:40.403Z,8.10
2022-09-06T03:23:07.654Z,8.18
2022-09-06T03:25:34.912Z,8.02
2022-09-06T03:28:02.177Z,8.43
2022-09-06T03:30:29.385Z,7.72
2022-09-06T03:32:59.782Z,8.70
2022-09-06T03:35:29.135Z,7.78
2022-09-06T03:37:56.317Z,8.27
2022-09-06T03:40:23.693Z,8.77
2022-09-06T03:42:50.857Z,9.05
2022-09-06T03:45:18.170Z,8.88
2022-09-06T03:47:45.430Z,8.48
2022-09-06T03:50:12.702Z,8.18
2022-09-06T03:52:40.611Z,8.75
2022-09-06T03:55:07.995Z,8.73
2022-09-06T03:57:35.277Z,8.90
2022-09-06T04:00:02.546Z,8.00
2022-09-06T04:02:29.780Z,8.45
2022-09-06T04:04:57.105Z,8.70
2022-09-06T04:07:24.342Z,8.50
2022-09-06T04:09:51.602Z,8.00
2022-09-06T04:12:18.804Z,9.20
2022-09-06T04:14:46.005Z,8.98
2022-09-06T04:17:14.694Z,8.05
2022-09-06T04:19:41.852Z,8.65
2022-09-06T04:22:09.121Z,8.00
2022-09-06T04:24:36.288Z,9.57
2022-09-06T04:27:03.507Z,8.18
2022-09-06T04:29:30.695Z,8.75
2022-09-06T04:31:57.966Z,8.88
2022-09-06T04:34:25.253Z,8.70
2022-09-06T04:36:52.440Z,9.02
2022-09-06T04:39:19.680Z,8.75
2022-09-06T04:41:46.892Z,9.85
2022-09-06T04:44:14.055Z,9.73
2022-09-06T04:46:42.784Z,8.95
2022-09-06T04:49:10.243Z,9.68
2022-09-06T04:51:39.454Z,10.30
2022-09-06T04:54:07.225Z,9.45
2022-09-06T04:56:34.467Z,10.27
2022-09-06T04:59:01.711Z,9.20
2022-09-06T05:01:28.971Z,9.65
2022-09-06T05:03:57.170Z,10.00
2022-09-06T05:06:24.992Z,9.43
2022-09-06T05:08:52.521Z,10.18
2022-09-06T05:11:20.065Z,9.73
2022-09-06T05:13:47.816Z,9.38
2022-09-06T05:16:15.311Z,10.23
2022-09-06T05:18:42.636Z,9.73
2022-09-06T05:21:10.307Z,9.80
2022-09-06T05:23:37.565Z,9.65
2022-09-06T05:26:05.094Z,9.85
2022-09-06T05:28:32.305Z,9.80
2022-09-06T05:31:06.421Z,9.77
2022-09-06T05:33:34.242Z,9.65
2022-09-06T05:36:01.467Z,9.90
2022-09-06T05:38:29.841Z,9.27
2022-09-06T05:40:57.132Z,9.88
2022-09-06T05:43:24.383Z,9.45
2022-09-06T05:45:52.037Z,9.65
2022-09-06T05:48:19.396Z,8.98
2022-09-06T05:50:46.715Z,9.65
2022-09-06T05:53:13.978Z,8.93
2022-09-06T05:55:43.141Z,8.52
2022-09-06T05:58:11.023Z,9.43
2022-09-06T06:00:38.637Z,10.13
2022-09-06T06:03:05.854Z,9.73
2022-09-06T06:05:33.732Z,9.98
2022-09-06T06:08:02.649Z,10.38
2022-09-06T06:10:30.230Z,10.40
2022-09-06T06:12:58.382Z,10.77
2022-09-06T06:15:26.084Z,9.68
2022-09-06T06:17:53.413Z,10.25
2022-09-06T06:20:20.697Z,10.70
2022-09-06T06:22:48.065Z,10.18
2022-09-06T06:25:15.929Z,10.63
2022-09-06T06:27:43.258Z,11.10
2022-09-06T06:30:11.699Z,10.82
2022-09-06T06:32:42.900Z,10.38
2022-09-06T06:35:10.491Z,10.20
2022-09-06T06:37:38.498Z,10.23
2022-09-06T06:40:06.343Z,9.90
2022-09-06T06:42:34.165Z,9.80
2022-09-06T06:45:02.207Z,10.75
2022-09-06T06:47:29.773Z,9.82
2022-09-06T06:49:58.182Z,9.38
2022-09-06T06:52:26.783Z,10.55
2022-09-06T06:54:54.613Z,10.55
2022-09-06T06:57:22.090Z,10.48
2022-09-06T06:59:49.444Z,9.95
2022-09-06T07:02:17.432Z,9.23
2022-09-06T07:04:45.204Z,10.10
2022-09-06T07:12:47.278Z,9.82
2022-09-06T07:15:14.705Z,10.10
2022-09-06T07:17:41.946Z,9.65
2022-09-06T07:22:40.772Z,9.43
2022-09-06T07:25:09.368Z,9.77
2022-09-06T07:27:51.781Z,9.30
2022-09-06T07:30:20.512Z,9.02
2022-09-06T07:32:48.012Z,8.45
2022-09-06T07:35:15.272Z,9.38
2022-09-06T07:37:42.723Z,8.13
2022-09-06T07:40:10.533Z,8.38
2022-09-06T07:42:38.049Z,8.30
2022-09-06T07:45:05.881Z,8.52
2022-09-06T07:53:15.472Z,9.18
2022-09-06T07:55:44.934Z,8.82
2022-09-06T07:58:12.162Z,8.38
2022-09-06T08:00:41.260Z,8.90
2022-09-06T08:03:09.183Z,9.13
2022-09-06T08:11:10.957Z,8.80
2022-09-06T08:13:39.359Z,9.02
2022-09-06T08:16:07.869Z,9.10
2022-09-06T08:18:36.066Z,8.18
2022-09-06T08:21:13.823Z,8.43
2022-09-06T08:23:44.659Z,8.43
2022-09-06T08:26:12.039Z,8.80
2022-09-06T08:28:39.315Z,8.70
2022-09-06T08:31:07.734Z,9.15
2022-09-06T08:33:34.993Z,8.95
2022-09-06T08:36:02.238Z,9.38
2022-09-06T08:38:29.797Z,8.68
2022-09-06T08:41:07.722Z,8.82
2022-09-06T08:43:35.346Z,8.68
2022-09-06T08:46:02.650Z,8.75
2022-09-06T08:48:31.145Z,9.15
2022-09-06T08:51:09.892Z,9.55
2022-09-06T08:53:40.056Z,7.70
2022-09-06T08:56:18.406Z,7.38
2022-09-06T08:59:04.496Z,8.35
2022-09-06T09:01:41.412Z,7.93
2022-09-06T09:04:10.392Z,8.05
2022-09-06T09:06:39.064Z,8.40
2022-09-06T09:09:11.328Z,8.13
2022-09-06T09:11:39.945Z,9.05
2022-09-06T09:14:17.188Z,9.02
2022-09-06T09:16:44.657Z,8.38
2022-09-06T09:19:11.900Z,7.97
2022-09-06T09:21:40.696Z,7.88
2022-09-06T09:24:09.664Z,8.18
2022-09-06T09:26:41.536Z,7.70
2022-09-06T09:29:10.866Z,7.90
2022-09-06T09:31:42.455Z,7.50
2022-09-06T09:34:13.856Z,7.10
2022-09-06T09:39:34.769Z,7.50
2022-09-06T09:42:02.468Z,7.07
2022-09-06T09:44:29.957Z,6.80
2022-09-06T09:46:57.226Z,6.95
2022-09-06T09:49:25.048Z,6.40
2022-09-06T09:52:11.140Z,6.00
2022-09-06T09:54:39.740Z,5.65
2022-09-06T09:57:15.552Z,6.55
2022-09-06T09:59:45.792Z,6.18
2022-09-06T10:02:31.151Z,6.38
2022-09-06T10:05:19.849Z,6.25
2022-09-06T10:07:51.947Z,6.45
2022-09-06T10:10:35.596Z,5.85
2022-09-06T10:13:14.995Z,5.88
2022-09-06T10:15:43.736Z,6.18
2022-09-06T10:18:30.061Z,5.25
2022-09-06T10:21:05.439Z,5.40
2022-09-06T10:26:41.365Z,5.32
2022-09-06T10:29:12.994Z,4.97
2022-09-06T10:31:42.160Z,5.20
2022-09-06T10:34:16.700Z,5.50
2022-09-06T10:37:02.213Z,6.50
2022-09-06T10:39:44.727Z,5.78
2022-09-06T10:42:21.699Z,5.65
2022-09-06T10:45:17.088Z,6.18
2022-09-06T10:48:04.797Z,6.10
2022-09-06T10:50:38.021Z,5.68
2022-09-06T10:53:28.248Z,5.75
2022-09-06T10:56:03.727Z,5.97
2022-09-06T11:01:30.248Z,6.00
2022-09-06T11:04:04.352Z,5.25
2022-09-06T11:06:44.823Z,5.63
2022-09-06T11:09:12.085Z,4.95
2022-09-06T11:11:46.018Z,6.28
2022-09-06T11:14:14.326Z,6.18
2022-09-06T11:16:53.953Z,5.00
2022-09-06T11:19:25.408Z,5.45
2022-09-06T11:22:15.656Z,5.03
2022-09-06T11:24:48.841Z,5.05
2022-09-06T11:27:16.106Z,4.75
2022-09-06T11:29:45.155Z,4.82
2022-09-06T11:32:30.120Z,5.25
2022-09-06T11:34:58.543Z,5.65
2022-09-06T11:37:28.249Z,4.78
2022-09-06T11:42:56.005Z,5.47
2022-09-06T11:45:42.292Z,5.63
2022-09-06T11:48:24.646Z,5.63
2022-09-06T11:50:54.643Z,5.10
2022-09-06T11:53:26.237Z,5.72
2022-09-06T11:56:02.553Z,6.30
2022-09-06T11:58:32.128Z,5.25
2022-09-06T12:01:18.841Z,6.53
2022-09-06T12:04:05.956Z,5.28
2022-09-06T12:06:42.032Z,5.88
2022-09-06T12:09:27.844Z,5.60
2022-09-06T12:11:56.576Z,5.82
2022-09-06T12:14:29.682Z,5.88
2022-09-06T12:16:56.885Z,5.95
2022-09-06T12:19:44.482Z,5.35
2022-09-06T12:22:27.264Z,6.57
2022-09-06T12:24:54.462Z,5.80
2022-09-06T12:27:26.818Z,5.60
2022-09-06T12:29:58.609Z,5.25
2022-09-06T12:32:42.223Z,5.47
2022-09-06T12:38:06.967Z,4.70
2022-09-06T12:40:59.071Z,5.03
2022-09-06T12:43:27.117Z,5.32
2022-09-06T12:45:55.549Z,5.72
2022-09-06T12:48:35.338Z,5.32
2022-09-06T12:51:28.683Z,6.22
2022-09-06T12:54:19.200Z,5.78
2022-09-06T12:56:46.418Z,5.70
2022-09-06T12:59:14.850Z,5.65
2022-09-06T13:01:45.303Z,5.75
2022-09-06T13:04:16.369Z,5.15
2022-09-06T13:06:48.273Z,6.10
2022-09-06T13:09:18.465Z,5.90
2022-09-06T13:11:47.147Z,6.20
2022-09-06T13:14:18.153Z,4.95
2022-09-06T13:16:48.052Z,5.97
2022-09-06T13:19:16.451Z,5.95
2022-09-06T13:21:44.865Z,6.05
2022-09-06T13:24:25.614Z,4.82
2022-09-06T13:26:53.338Z,5.10
2022-09-06T13:29:24.180Z,4.57
2022-09-06T13:31:52.513Z,5.45
2022-09-06T13:34:24.136Z,5.22
2022-09-06T13:36:52.807Z,5.13
2022-09-06T13:39:31.489Z,5.18
2022-09-06T13:42:03.017Z,4.70
2022-09-06T13:44:34.529Z,4.70
2022-09-06T13:47:02.085Z,4.80
2022-09-06T13:49:29.332Z,4.47
2022-09-06T13:52:00.233Z,4.82
2022-09-06T13:54:27.997Z,4.88
2022-09-06T13:56:55.974Z,4.90
2022-09-06T13:59:23.888Z,4.93
2022-09-06T14:01:57.030Z,4.53
2022-09-06T14:04:25.484Z,4.60
2022-09-06T14:06:54.179Z,4.53
2022-09-06T14:09:21.550Z,4.93
2022-09-06T14:11:48.743Z,4.55
2022-09-06T14:14:17.552Z,4.57
2022-09-06T14:16:45.128Z,4.90
2022-09-06T14:19:12.332Z,4.28
2022-09-06T14:21:39.512Z,4.68
2022-09-06T14:24:06.883Z,4.65
2022-09-06T14:26:34.647Z,5.25
2022-09-06T14:29:01.957Z,3.65
2022-09-06T14:31:29.906Z,4.20
2022-09-06T14:33:58.133Z,4.57
2022-09-06T14:36:26.869Z,4.82
2022-09-06T14:38:54.133Z,4.50
2022-09-06T14:41:21.660Z,4.43
2022-09-06T14:43:50.626Z,4.28
2022-09-06T14:46:18.285Z,4.90
2022-09-06T14:48:46.176Z,4.50
2022-09-06T14:51:20.785Z,5.00
2022-09-06T14:53:48.643Z,4.30
2022-09-06T14:56:15.970Z,5.35
2022-09-06T14:58:43.918Z,5.35
2022-09-06T15:01:13.302Z,4.95
2022-09-06T15:03:41.959Z,4.75
2022-09-06T15:06:09.338Z,4.35
2022-09-06T15:08:37.899Z,4.63
2022-09-06T15:11:07.988Z,4.65
2022-09-06T15:13:39.217Z,4.50
2022-09-06T15:16:07.491Z,4.80
2022-09-06T15:18:35.089Z,5.03
2022-09-06T15:21:12.367Z,5.40
2022-09-06T15:23:40.370Z,5.32
2022-09-06T15:26:08.832Z,4.82
2022-09-06T15:28:37.072Z,5.22
2022-09-06T15:31:04.793Z,5.50
2022-09-06T15:33:33.158Z,4.88
2022-09-06T15:36:05.958Z,5.03
2022-09-06T15:38:36.660Z,5.47
2022-09-06T15:41:07.901Z,5.15
2022-09-06T15:43:36.645Z,5.57
2022-09-06T15:46:04.747Z,5.18
2022-09-06T15:48:40.055Z,4.80
2022-09-06T15:53:34.566Z,4.63
2022-09-06T15:56:02.678Z,5.25
2022-09-06T15:58:30.328Z,4.50
2022-09-06T16:01:05.147Z,4.97
2022-09-06T16:03:32.894Z,4.78
2022-09-06T16:08:59.837Z,4.70
2022-09-06T16:11:27.438Z,4.07
2022-09-06T16:13:54.710Z,4.78
2022-09-06T16:16:22.776Z,4.78
2022-09-06T16:18:50.389Z,5.03
2022-09-06T16:21:18.860Z,5.10
2022-09-06T16:23:50.810Z,4.97
2022-09-06T16:26:21.261Z,5.22
2022-09-06T16:28:49.920Z,5.15
2022-09-06T16:31:17.605Z,4.82
2022-09-06T16:33:45.802Z,5.90
2022-09-06T16:36:14.100Z,5.38
2022-09-06T16:38:41.953Z,4.68
2022-09-06T16:41:10.960Z,5.15
2022-09-06T16:43:38.283Z,5.88
2022-09-06T16:46:06.009Z,5.60
2022-09-06T16:48:34.089Z,5.28
2022-09-06T16:51:15.359Z,4.95
2022-09-06T16:53:43.795Z,5.68
2022-09-06T16:56:12.523Z,5.65
2022-09-06T16:58:39.803Z,6.22
2022-09-06T17:01:09.434Z,5.65
2022-09-06T17:03:37.327Z,6.20
2022-09-06T17:06:04.685Z,6.43
2022-09-06T17:08:32.856Z,5.28
2022-09-06T17:11:03.915Z,6.15
2022-09-06T17:13:32.113Z,6.13
2022-09-06T17:16:21.874Z,6.35
2022-09-06T17:18:49.949Z,5.75
2022-09-06T17:21:17.172Z,6.20
2022-09-06T17:23:44.594Z,6.05
2022-09-06T17:26:12.006Z,6.07
2022-09-06T17:28:40.640Z,5.93
2022-09-06T17:31:09.203Z,5.63
2022-09-06T17:33:37.026Z,6.07
2022-09-06T17:36:07.341Z,5.95
2022-09-06T17:38:35.112Z,5.78
2022-09-06T17:41:02.978Z,5.80
2022-09-06T17:43:30.306Z,6.50
2022-09-06T17:45:57.729Z,5.90
2022-09-06T17:48:25.333Z,5.85
2022-09-06T17:50:53.705Z,6.60
2022-09-06T17:53:20.877Z,5.75
2022-09-06T17:55:51.992Z,6.15
2022-09-06T17:58:20.150Z,6.10
2022-09-06T18:00:47.454Z,6.28
2022-09-06T18:03:14.790Z,5.65
2022-09-06T18:05:42.929Z,6.18
2022-09-06T18:08:11.037Z,6.30
2022-09-06T18:10:38.753Z,6.10
2022-09-06T18:13:06.605Z,6.07
2022-09-06T18:15:39.194Z,6.43
2022-09-06T18:18:06.460Z,5.80
2022-09-06T18:20:33.630Z,6.25
2022-09-06T18:23:00.943Z,6.20
2022-09-06T18:25:28.887Z,6.65
2022-09-06T18:27:56.288Z,6.38
2022-09-06T18:30:23.484Z,6.60
2022-09-06T18:32:50.890Z,6.95
2022-09-06T18:35:18.115Z,6.97
2022-09-06T18:37:45.445Z,6.35
2022-09-06T18:40:12.741Z,6.55
2022-09-06T18:42:44.361Z,6.32
2022-09-06T18:45:11.637Z,6.82
2022-09-06T18:47:38.897Z,6.32
2022-09-06T18:50:08.020Z,6.05
2022-09-06T18:52:35.812Z,6.55
2022-09-06T18:55:02.994Z,5.68
2022-09-06T18:57:30.705Z,6.88
2022-09-06T18:59:58.136Z,5.75
2022-09-06T19:02:27.562Z,6.00
2022-09-06T19:04:56.041Z,6.28
2022-09-06T19:07:23.223Z,5.63
2022-09-06T19:09:50.434Z,5.78
2022-09-06T19:12:17.613Z,6.20
2022-09-06T19:14:44.828Z,6.38
2022-09-06T19:17:12.209Z,6.13
2022-09-06T19:19:39.423Z,6.43
2022-09-06T19:22:06.703Z,6.18
2022-09-06T19:24:33.984Z,6.65
2022-09-06T19:27:01.199Z,5.80
2022-09-06T19:29:28.613Z,6.90
2022-09-06T19:31:56.065Z,6.97
2022-09-06T19:34:23.343Z,6.63
2022-09-06T19:36:55.059Z,5.97
2022-09-06T19:39:22.385Z,6.35
2022-09-06T19:41:49.665Z,5.85
2022-09-06T19:44:17.899Z,5.68
2022-09-06T19:46:46.945Z,6.60
2022-09-06T19:49:16.292Z,6.03
2022-09-06T19:51:48.212Z,6.15
2022-09-06T19:54:15.981Z,6.40
2022-09-06T19:56:44.194Z,5.85
2022-09-06T19:59:12.907Z,6.07
2022-09-06T20:01:40.917Z,6.70
2022-09-06T20:04:09.307Z,7.22
2022-09-06T20:06:36.510Z,6.25
2022-09-06T20:09:05.330Z,6.70
2022-09-06T20:11:33.589Z,7.07
2022-09-06T20:14:01.255Z,7.13
2022-09-06T20:16:28.841Z,6.63
2022-09-06T20:18:56.840Z,6.32
2022-09-06T20:21:24.257Z,6.95
2022-09-06T20:23:52.265Z,6.28
2022-09-06T20:26:20.527Z,7.40
2022-09-06T20:28:47.844Z,5.93
2022-09-06T20:31:16.485Z,7.28
2022-09-06T20:33:49.157Z,6.53
2022-09-06T20:36:16.963Z,7.35
2022-09-06T20:38:44.918Z,6.97
2022-09-06T20:41:12.158Z,6.95
2022-09-06T20:43:39.990Z,7.13
2022-09-06T20:46:10.503Z,7.18
2022-09-06T20:48:43.662Z,6.93
2022-09-06T20:51:12.694Z,7.45
2022-09-06T20:53:40.768Z,6.85
2022-09-06T20:56:12.313Z,7.10
2022-09-06T20:58:40.200Z,6.95
2022-09-06T21:01:08.553Z,6.95
2022-09-06T21:03:38.148Z,7.18
2022-09-06T21:06:06.273Z,7.20
2022-09-06T21:08:35.435Z,7.65
2022-09-06T21:11:04.953Z,6.65
2022-09-06T21:13:33.413Z,7.50
2022-09-06T21:16:00.879Z,7.20
2022-09-06T21:18:29.311Z,7.13
2022-09-06T21:20:57.526Z,7.32
2022-09-06T21:23:25.219Z,6.80
2022-09-06T21:26:00.245Z,6.65
2022-09-06T21:28:31.741Z,6.40
2022-09-06T21:31:06.035Z,6.82
2022-09-06T21:33:33.737Z,7.18
2022-09-06T21:36:03.685Z,6.43
2022-09-06T21:38:31.648Z,6.28
2022-09-06T21:40:58.962Z,6.82
2022-09-06T21:43:26.191Z,6.47
2022-09-06T21:45:53.394Z,6.43
2022-09-06T21:48:20.689Z,7.43
2022-09-06T21:50:48.540Z,6.40
2022-09-06T21:53:15.931Z,7.13
2022-09-06T21:55:43.699Z,6.32
2022-09-06T21:58:11.493Z,6.82
2022-09-06T22:00:39.387Z,6.50
2022-09-06T22:03:07.220Z,6.63
2022-09-06T22:05:34.806Z,6.30
2022-09-06T22:08:02.466Z,7.10
2022-09-06T22:10:29.745Z,6.55
2022-09-06T22:12:56.926Z,6.80
2022-09-06T22:15:24.207Z,6.35
2022-09-06T22:17:51.391Z,6.50
2022-09-06T22:20:18.669Z,7.18
2022-09-06T22:22:46.233Z,7.00
2022-09-06T22:25:13.875Z,7.70
2022-09-06T22:27:41.277Z,7.15
2022-09-06T22:30:08.808Z,6.90
2022-09-06T22:32:37.081Z,7.13
2022-09-06T22:35:06.070Z,7.57
2022-09-06T22:37:33.990Z,7.25
2022-09-06T22:40:01.655Z,7.85
2022-09-06T22:42:29.014Z,6.72
2022-09-06T22:44:56.205Z,7.18
2022-09-06T22:47:23.644Z,6.53
2022-09-06T22:49:51.817Z,7.30
2022-09-06T22:52:19.112Z,7.68
2022-09-06T22:54:46.296Z,7.15
2022-09-06T22:57:13.499Z,6.68
2022-09-06T22:59:40.723Z,7.03
2022-09-06T23:02:07.913Z,7.35
2022-09-06T23:04:35.160Z,7.53
2022-09-06T23:07:02.682Z,7.72
2022-09-06T23:09:29.940Z,7.53
2022-09-06T23:11:57.116Z,7.00
2022-09-06T23:14:24.436Z,7.90
2022-09-06T23:16:51.736Z,8.30
2022-09-06T23:19:18.917Z,7.47
2022-09-06T23:21:46.683Z,8.25
2022-09-06T23:24:13.931Z,8.20
2022-09-06T23:26:41.196Z,7.40
2022-09-06T23:29:08.797Z,7.55
2022-09-06T23:31:36.137Z,8.10
2022-09-06T23:34:03.515Z,7.82
2022-09-06T23:36:31.144Z,7.97
2022-09-06T23:38:58.586Z,8.10
2022-09-06T23:41:26.051Z,7.85
2022-09-06T23:43:53.394Z,7.40
2022-09-06T23:46:20.751Z,8.25
2022-09-06T23:48:47.983Z,7.72
2022-09-06T23:51:15.334Z,8.57
2022-09-06T23:53:42.523Z,8.35
2022-09-06T23:56:10.295Z,8.85
2022-09-06T23:58:38.269Z,9.27
